Time;durP1;ratioP1;P1;durP2;ratioP2;P2;SDS_P1;SDS_P2;PMS_P1;PMS_P2;Temp;Humidity;BMP_temperature;BMP_pressure;BME280_temperature;BME280_humidity;BME280_pressure;Samples;Min_cycle;Max_cycle;Signal;HPM_P1;HPM_P2
2023/11/06 00:01:26;;;;;;;0.10;0.10;;;;;;;12.87;nan;97957.00;5041698;27;96807;-86
2023/11/06 00:03:51;;;;;;;0.00;0.00;;;;;;;12.90;nan;97977.81;5044656;27;98133;-85
2023/11/06 00:06:17;;;;;;;0.00;0.00;;;;;;;12.73;nan;97967.81;5036021;27;97422;-86
2023/11/06 00:08:44;;;;;;;0.00;0.00;;;;;;;12.49;nan;97941.66;5037072;27;96748;-85
2023/11/06 00:11:10;;;;;;;0.00;0.00;;;;;;;12.74;nan;97981.81;5032848;27;97133;-85
2023/11/06 00:13:35;;;;;;;0.00;0.00;;;;;;;12.76;nan;97961.47;5057107;27;97349;-86
2023/11/06 00:16:01;;;;;;;0.00;0.00;;;;;;;12.99;nan;98007.84;5017003;27;100777;-85
2023/11/06 00:18:27;;;;;;;0.35;0.35;;;;;;;12.90;nan;98006.78;5019821;27;97066;-85
2023/11/06 00:20:52;;;;;;;0.45;0.45;;;;;;;12.90;nan;98012.06;5033940;27;97051;-85
2023/11/06 00:23:18;;;;;;;0.10;0.10;;;;;;;12.54;nan;97957.09;5041233;27;97877;-85
2023/11/06 00:25:44;;;;;;;0.00;0.00;;;;;;;12.93;nan;98026.78;5026712;27;98330;-86
2023/11/06 00:28:09;;;;;;;0.00;0.00;;;;;;;12.80;nan;98007.63;5075493;27;97075;-85
2023/11/06 00:30:36;;;;;;;0.10;0.10;;;;;;;12.94;nan;98040.78;5044093;27;97341;-86
2023/11/06 00:33:02;;;;;;;0.00;0.00;;;;;;;13.05;nan;98041.59;5056120;27;100121;-86
2023/11/06 00:35:27;;;;;;;0.00;0.00;;;;;;;13.08;nan;98064.22;5056432;27;97875;-86
2023/11/06 00:37:53;;;;;;;0.00;0.00;;;;;;;13.01;nan;98057.78;5042355;27;96831;-85
2023/11/06 00:40:19;;;;;;;0.10;0.10;;;;;;;12.89;nan;98070.94;5028212;27;96992;-85
2023/11/06 00:42:45;;;;;;;0.00;0.00;;;;;;;12.83;nan;98071.44;5033555;27;100192;-85
2023/11/06 00:45:10;;;;;;;0.45;0.45;;;;;;;12.65;nan;98046.53;5041999;27;98257;-87
2023/11/06 00:47:36;;;;;;;0.00;0.00;;;;;;;12.86;nan;98080.91;5047177;27;96893;-85
2023/11/06 00:50:02;;;;;;;0.00;0.00;;;;;;;12.61;nan;98034.59;5040083;27;97330;-86
2023/11/06 00:52:28;;;;;;;0.00;0.00;;;;;;;12.75;nan;98075.63;5023613;27;101291;-86
2023/11/06 00:54:53;;;;;;;0.00;0.00;;;;;;;12.38;nan;98026.69;5051688;27;97336;-84
2023/11/06 00:57:19;;;;;;;0.00;0.00;;;;;;;12.77;nan;98100.03;5033098;27;96693;-85
2023/11/06 00:59:44;;;;;;;0.00;0.00;;;;;;;12.63;nan;98085.31;5057505;27;96897;-85
2023/11/06 01:02:10;;;;;;;0.00;0.00;;;;;;;12.57;nan;98077.91;5024205;27;98023;-85
2023/11/06 01:04:36;;;;;;;0.00;0.00;;;;;;;12.78;nan;98117.50;5037710;27;101083;-85
2023/11/06 01:07:02;;;;;;;0.00;0.00;;;;;;;12.56;nan;98089.38;5060745;27;97095;-86
2023/11/06 01:09:29;;;;;;;0.00;0.00;;;;;;;12.77;nan;98114.06;5039858;27;96959;-85
2023/11/06 01:11:55;;;;;;;0.00;0.00;;;;;;;12.62;nan;98096.78;5070842;27;101233;-85
2023/11/06 01:14:20;;;;;;;0.05;0.05;;;;;;;12.88;nan;98129.81;5050452;27;100464;-85
2023/11/06 01:16:46;;;;;;;0.00;0.00;;;;;;;12.44;nan;98068.31;5032953;27;96858;-86
2023/11/06 01:19:12;;;;;;;0.10;0.10;;;;;;;12.70;nan;98115.47;5045365;27;97042;-84
2023/11/06 01:21:38;;;;;;;0.00;0.00;;;;;;;12.53;nan;98105.41;5048483;27;98078;-85
2023/11/06 01:24:04;;;;;;;0.00;0.00;;;;;;;12.83;nan;98137.25;5023765;27;101480;-86
2023/11/06 01:26:30;;;;;;;0.00;0.00;;;;;;;12.78;nan;98120.16;5032970;27;96990;-85
2023/11/06 01:28:56;;;;;;;0.00;0.00;;;;;;;12.70;nan;98133.88;5038628;27;97824;-86
2023/11/06 01:31:21;;;;;;;0.93;0.85;;;;;;;12.67;nan;98149.91;5039106;27;101749;-85
2023/11/06 01:33:47;;;;;;;0.00;0.00;;;;;;;12.72;nan;98152.22;5042219;27;99769;-85
2023/11/06 01:36:13;;;;;;;0.00;0.00;;;;;;;12.75;nan;98158.06;5055337;27;96765;-85
2023/11/06 01:38:38;;;;;;;0.00;0.00;;;;;;;12.80;nan;98166.47;5051329;27;97070;-85
2023/11/06 01:41:04;;;;;;;0.08;0.08;;;;;;;12.84;nan;98178.41;5039746;27;97919;-86
2023/11/06 01:43:31;;;;;;;0.00;0.00;;;;;;;12.81;nan;98177.81;5035756;27;101454;-85
2023/11/06 01:45:57;;;;;;;0.35;0.35;;;;;;;12.64;nan;98163.31;5043068;27;96775;-85
2023/11/06 01:48:23;;;;;;;0.00;0.00;;;;;;;12.66;nan;98164.06;5042127;27;96809;-85
2023/11/06 01:50:48;;;;;;;0.00;0.00;;;;;;;12.70;nan;98162.84;5034311;27;98372;-86
2023/11/06 01:53:16;;;;;;;0.00;0.00;;;;;;;12.74;nan;98174.84;5036053;27;99258;-86
2023/11/06 01:55:42;;;;;;;0.00;0.00;;;;;;;12.81;nan;98198.88;5052749;27;96947;-86
2023/11/06 01:58:11;;;;;;;0.00;0.00;;;;;;;12.73;nan;98203.91;5064234;27;97190;-86
2023/11/06 02:00:38;;;;;;;0.00;0.00;;;;;;;12.82;nan;98213.72;5024228;27;97992;-86
2023/11/06 02:03:06;;;;;;;0.00;0.00;;;;;;;12.79;nan;98214.78;5041339;27;97883;-86
2023/11/06 02:05:31;;;;;;;0.00;0.00;;;;;;;12.82;nan;98224.25;5045337;27;96874;-85
2023/11/06 02:07:58;;;;;;;0.00;0.00;;;;;;;12.61;nan;98206.50;5073357;27;97140;-86
2023/11/06 02:10:24;;;;;;;0.00;0.00;;;;;;;12.77;nan;98219.34;5047351;27;98139;-86
2023/11/06 02:12:49;;;;;;;0.00;0.00;;;;;;;12.87;nan;98240.53;5056768;27;97960;-86
2023/11/06 02:15:15;;;;;;;0.00;0.00;;;;;;;12.95;nan;98250.50;5034097;27;96695;-86
2023/11/06 02:17:44;;;;;;;0.00;0.00;;;;;;;12.90;nan;98246.41;5038890;27;96940;-85
2023/11/06 02:20:10;;;;;;;0.00;0.00;;;;;;;12.96;nan;98268.78;5015670;27;101760;-85
2023/11/06 02:22:41;;;;;;;0.10;0.10;;;;;;;12.77;nan;98237.78;5036030;27;101375;-86
2023/11/06 02:25:06;;;;;;;0.00;0.00;;;;;;;12.78;nan;98247.34;5034602;27;96740;-85
2023/11/06 02:27:32;;;;;;;0.00;0.00;;;;;;;12.89;nan;98268.44;5052605;27;97457;-85
2023/11/06 02:29:57;;;;;;;0.00;0.00;;;;;;;12.97;nan;98273.09;5040919;27;100919;-85
2023/11/06 02:32:23;;;;;;;0.00;0.00;;;;;;;12.87;nan;98274.78;5050554;27;98067;-86
2023/11/06 02:34:48;;;;;;;0.00;0.00;;;;;;;12.81;nan;98260.28;5046144;27;96813;-86
2023/11/06 02:37:14;;;;;;;0.00;0.00;;;;;;;12.83;nan;98255.75;5018874;27;96958;-85
2023/11/06 02:39:39;;;;;;;0.00;0.00;;;;;;;13.03;nan;98295.50;5038218;27;97397;-86
2023/11/06 02:42:05;;;;;;;0.00;0.00;;;;;;;12.88;nan;98295.69;5024850;27;100874;-85
2023/11/06 02:44:31;;;;;;;0.20;0.20;;;;;;;12.99;nan;98309.88;5022009;27;96736;-86
2023/11/06 02:46:57;;;;;;;0.00;0.00;;;;;;;12.90;nan;98309.59;5018611;27;96768;-86
2023/11/06 02:49:24;;;;;;;0.00;0.00;;;;;;;12.64;nan;98287.84;5035436;27;101397;-85
2023/11/06 02:51:50;;;;;;;0.00;0.00;;;;;;;12.68;nan;98307.75;5045271;27;97970;-86
2023/11/06 02:54:16;;;;;;;0.00;0.00;;;;;;;12.71;nan;98306.66;5048224;27;97364;-85
2023/11/06 02:56:42;;;;;;;0.00;0.00;;;;;;;12.77;nan;98329.91;5019771;27;97130;-86
2023/11/06 02:59:07;;;;;;;0.05;0.05;;;;;;;12.68;nan;98314.78;5038091;27;100826;-85
2023/11/06 03:01:34;;;;;;;0.00;0.00;;;;;;;12.67;nan;98316.59;5049001;27;98304;-85
2023/11/06 03:04:00;;;;;;;0.00;0.00;;;;;;;12.74;nan;98351.22;5034367;27;96704;-85
2023/11/06 03:06:27;;;;;;;0.00;0.00;;;;;;;12.57;nan;98322.66;5025832;27;97252;-85
2023/11/06 03:08:54;;;;;;;0.00;0.00;;;;;;;12.75;nan;98357.31;5047591;27;98385;-85
2023/11/06 03:11:20;;;;;;;0.00;0.00;;;;;;;12.69;nan;98353.34;5037086;27;101319;-86
2023/11/06 03:13:46;;;;;;;0.10;0.10;;;;;;;12.78;nan;98364.97;5029994;27;96744;-85
2023/11/06 03:16:12;;;;;;;0.00;0.00;;;;;;;12.75;nan;98362.56;5037621;27;96869;-85
2023/11/06 03:18:37;;;;;;;0.00;0.00;;;;;;;12.39;nan;98302.00;5034652;27;100931;-86
2023/11/06 03:21:03;;;;;;;0.10;0.10;;;;;;;12.66;nan;98366.72;5037941;27;97944;-86
2023/11/06 03:23:30;;;;;;;0.00;0.00;;;;;;;12.76;nan;98377.41;5020873;27;97272;-85
2023/11/06 03:25:55;;;;;;;0.10;0.10;;;;;;;12.53;nan;98363.31;5050508;27;97239;-86
2023/11/06 03:28:21;;;;;;;0.00;0.00;;;;;;;12.67;nan;98378.94;5052788;27;98554;-85
2023/11/06 03:30:46;;;;;;;0.00;0.00;;;;;;;12.75;nan;98389.75;5036124;27;97731;-86
2023/11/06 03:33:12;;;;;;;0.10;0.10;;;;;;;12.73;nan;98391.63;5037782;27;97066;-85
2023/11/06 03:35:37;;;;;;;0.57;0.38;;;;;;;12.70;nan;98386.59;5043666;27;96894;-86
2023/11/06 03:38:03;;;;;;;1.10;0.73;;;;;;;12.66;nan;98396.50;5054313;27;98440;-85
2023/11/06 03:40:29;;;;;;;0.00;0.00;;;;;;;12.67;nan;98399.97;5033018;27;101784;-85
2023/11/06 03:42:54;;;;;;;0.00;0.00;;;;;;;12.65;nan;98393.97;5035004;27;96735;-85
2023/11/06 03:45:20;;;;;;;0.00;0.00;;;;;;;12.72;nan;98399.66;5044793;27;97132;-85
2023/11/06 03:47:45;;;;;;;0.00;0.00;;;;;;;12.46;nan;98358.47;5025081;27;102135;-85
2023/11/06 03:50:11;;;;;;;0.00;0.00;;;;;;;12.64;nan;98416.84;5038917;27;97975;-86
2023/11/06 03:52:36;;;;;;;0.00;0.00;;;;;;;12.62;nan;98404.72;5064640;27;97835;-85
2023/11/06 03:55:03;;;;;;;0.00;0.00;;;;;;;12.55;nan;98400.88;5048510;27;97104;-85
2023/11/06 03:57:29;;;;;;;0.00;0.00;;;;;;;12.58;nan;98419.09;5028090;27;101065;-86
2023/11/06 03:59:55;;;;;;;0.00;0.00;;;;;;;12.46;nan;98408.47;5067383;27;98470;-86
2023/11/06 04:02:20;;;;;;;0.10;0.10;;;;;;;12.52;nan;98415.09;5060614;27;97147;-85
2023/11/06 04:04:47;;;;;;;0.00;0.00;;;;;;;12.51;nan;98409.94;5051135;27;97622;-85
2023/11/06 04:07:12;;;;;;;0.00;0.00;;;;;;;12.59;nan;98418.97;5034952;27;97286;-85
2023/11/06 04:09:38;;;;;;;0.10;0.10;;;;;;;12.51;nan;98439.75;5029647;27;100987;-85
2023/11/06 04:12:04;;;;;;;0.00;0.00;;;;;;;12.44;nan;98439.31;5035386;27;96768;-86
2023/11/06 04:14:30;;;;;;;0.00;0.00;;;;;;;12.42;nan;98435.13;5041366;27;96802;-85
2023/11/06 04:16:55;;;;;;;0.00;0.00;;;;;;;12.45;nan;98435.75;5050153;27;100406;-85
2023/11/06 04:19:21;;;;;;;0.00;0.00;;;;;;;12.48;nan;98439.97;5025792;27;100975;-85
2023/11/06 04:21:46;;;;;;;0.00;0.00;;;;;;;12.44;nan;98451.66;5018213;27;96904;-84
2023/11/06 04:24:12;;;;;;;0.00;0.00;;;;;;;12.35;nan;98450.50;5026460;27;97760;-86
2023/11/06 04:26:37;;;;;;;0.03;0.03;;;;;;;12.36;nan;98454.84;5028093;27;99693;-86
2023/11/06 04:29:03;;;;;;;0.00;0.00;;;;;;;12.04;nan;98420.25;5041467;27;98107;-86
2023/11/06 04:31:28;;;;;;;2.10;1.55;;;;;;;12.17;nan;98441.28;5034185;27;96767;-85
2023/11/06 04:33:54;;;;;;;0.00;0.00;;;;;;;12.04;nan;98441.28;5033236;27;97027;-86
2023/11/06 04:36:21;;;;;;;0.00;0.00;;;;;;;12.12;nan;98467.06;5034358;27;99871;-85
2023/11/06 04:38:46;;;;;;;0.00;0.00;;;;;;;12.21;nan;98463.78;5051021;27;97837;-84
2023/11/06 04:41:12;;;;;;;0.00;0.00;;;;;;;12.25;nan;98465.28;5041886;27;97011;-85
2023/11/06 04:43:38;;;;;;;0.00;0.00;;;;;;;11.79;nan;98427.19;5030280;27;96878;-85
2023/11/06 04:46:04;;;;;;;0.00;0.00;;;;;;;11.94;nan;98461.31;5037604;27;101338;-86
2023/11/06 04:48:30;;;;;;;0.00;0.00;;;;;;;11.96;nan;98480.44;5026353;27;101454;-86
2023/11/06 04:50:55;;;;;;;0.00;0.00;;;;;;;11.88;nan;98464.34;5037934;27;96840;-86
2023/11/06 04:53:21;;;;;;;0.00;0.00;;;;;;;11.99;nan;98485.50;5021683;27;97040;-85
2023/11/06 04:55:47;;;;;;;0.00;0.00;;;;;;;12.08;nan;98503.25;5054773;27;98054;-86
2023/11/06 04:58:13;;;;;;;0.00;0.00;;;;;;;11.80;nan;98470.09;5030756;27;100604;-85
2023/11/06 05:00:40;;;;;;;0.00;0.00;;;;;;;12.01;nan;98520.41;5069636;27;96722;-84
2023/11/06 05:03:06;;;;;;;0.00;0.00;;;;;;;11.87;nan;98518.72;5034376;27;97095;-85
2023/11/06 05:05:31;;;;;;;7.43;1.35;;;;;;;11.88;nan;98525.66;5033402;27;100939;-85
2023/11/06 05:07:57;;;;;;;0.00;0.00;;;;;;;11.67;nan;98482.41;5032257;27;101027;-86
2023/11/06 05:10:22;;;;;;;0.00;0.00;;;;;;;11.85;nan;98517.97;5036022;27;96744;-85
2023/11/06 05:12:48;;;;;;;0.00;0.00;;;;;;;11.77;nan;98526.34;5035117;27;96998;-85
2023/11/06 05:15:14;;;;;;;0.20;0.20;;;;;;;11.83;nan;98519.00;5031188;27;101432;-85
2023/11/06 05:17:39;;;;;;;0.00;0.00;;;;;;;11.80;nan;98520.03;5017994;27;101186;-86
2023/11/06 05:20:05;;;;;;;0.00;0.00;;;;;;;11.76;nan;98522.03;5034864;27;96752;-85
2023/11/06 05:22:31;;;;;;;0.00;0.00;;;;;;;11.78;nan;98527.22;5032751;27;96865;-85
2023/11/06 05:24:56;;;;;;;0.00;0.00;;;;;;;11.66;nan;98526.22;5033669;27;100439;-85
2023/11/06 05:27:22;;;;;;;0.00;0.00;;;;;;;11.83;nan;98547.91;5035562;27;98389;-85
2023/11/06 05:29:48;;;;;;;0.00;0.00;;;;;;;11.73;nan;98552.94;5024453;27;98156;-84
2023/11/06 05:32:13;;;;;;;0.13;0.13;;;;;;;11.64;nan;98551.78;5029763;27;97308;-85
2023/11/06 05:34:39;;;;;;;0.13;0.13;;;;;;;11.49;nan;98539.63;5058452;27;97383;-83
2023/11/06 05:37:05;;;;;;;0.00;0.00;;;;;;;11.55;nan;98536.63;5033425;27;97426;-84
2023/11/06 05:39:32;;;;;;;0.00;0.00;;;;;;;11.54;nan;98524.41;5034852;27;96785;-84
2023/11/06 05:41:57;;;;;;;0.10;0.10;;;;;;;11.38;nan;98510.63;5035511;27;97090;-85
2023/11/06 05:44:23;;;;;;;0.00;0.00;;;;;;;11.73;nan;98572.19;5005324;27;101347;-87
2023/11/06 05:46:48;;;;;;;0.00;0.00;;;;;;;11.54;nan;98548.06;5031377;27;100842;-87
2023/11/06 05:49:14;;;;;;;0.20;0.20;;;;;;;11.38;nan;98556.13;5032777;27;96755;-87
2023/11/06 05:51:39;;;;;;;0.43;0.43;;;;;;;11.53;nan;98581.38;5026923;27;98199;-87
2023/11/06 05:54:06;;;;;;;0.10;0.10;;;;;;;11.49;nan;98587.78;5024459;27;101579;-87
2023/11/06 05:56:31;;;;;;;0.00;0.00;;;;;;;11.32;nan;98583.63;5038483;27;98491;-87
2023/11/06 05:58:57;;;;;;;0.10;0.10;;;;;;;10.96;nan;98547.41;5036687;27;97551;-85
2023/11/06 06:01:23;;;;;;;0.00;0.00;;;;;;;11.12;nan;98572.72;5034161;27;96753;-87
2023/11/06 06:03:48;;;;;;;0.10;0.10;;;;;;;11.37;nan;98587.72;5022009;27;100614;-82
2023/11/06 06:06:16;;;;;;;0.00;0.00;;;;;;;11.42;nan;98610.13;5021751;27;101403;-82
2023/11/06 06:08:42;;;;;;;0.00;0.00;;;;;;;11.39;nan;98623.47;5043638;27;97834;-76
2023/11/06 06:11:08;;;;;;;0.00;0.00;;;;;;;11.23;nan;98586.84;5034462;27;96922;-84
2023/11/06 06:13:33;;;;;;;0.00;0.00;;;;;;;11.48;nan;98632.53;5045792;27;97403;-83
2023/11/06 06:16:01;;;;;;;0.30;0.30;;;;;;;11.63;nan;98626.28;5045492;27;98015;-84
2023/11/06 06:18:26;;;;;;;0.00;0.00;;;;;;;11.73;nan;98637.91;5032429;27;97332;-84
2023/11/06 06:20:52;;;;;;;0.00;0.00;;;;;;;11.68;nan;98628.63;5026215;27;97133;-81
2023/11/06 06:23:17;;;;;;;1.00;1.00;;;;;;;11.82;nan;98644.34;5032803;27;97598;-81
2023/11/06 06:25:43;;;;;;;0.00;0.00;;;;;;;11.88;nan;98649.22;5032766;27;97395;-84
2023/11/06 06:28:09;;;;;;;0.10;0.10;;;;;;;11.96;nan;98644.31;5029869;27;97310;-85
2023/11/06 06:30:34;;;;;;;0.00;0.00;;;;;;;11.80;nan;98622.56;5033960;27;97828;-83
2023/11/06 06:33:00;;;;;;;0.08;0.08;;;;;;;12.02;nan;98663.25;5053597;27;97958;-84
2023/11/06 06:35:25;;;;;;;0.08;0.08;;;;;;;11.96;nan;98672.41;5037281;27;97317;-84
2023/11/06 06:37:51;;;;;;;0.00;0.00;;;;;;;11.88;nan;98672.91;5028768;27;96817;-84
2023/11/06 06:40:17;;;;;;;0.00;0.00;;;;;;;11.90;nan;98681.53;5056698;27;97181;-87
2023/11/06 06:42:42;;;;;;;0.00;0.00;;;;;;;11.92;nan;98697.19;5051154;27;97277;-84
2023/11/06 06:45:08;;;;;;;0.75;0.75;;;;;;;11.87;nan;98705.41;5056832;27;98197;-84
2023/11/06 06:47:34;;;;;;;0.00;0.00;;;;;;;11.83;nan;98690.72;5040339;27;96846;-84
2023/11/06 06:49:59;;;;;;;0.10;0.10;;;;;;;11.88;nan;98693.94;5037220;27;96874;-83
2023/11/06 06:52:25;;;;;;;0.10;0.10;;;;;;;11.89;nan;98703.50;5041473;27;98462;-84
2023/11/06 06:54:50;;;;;;;0.00;0.00;;;;;;;11.77;nan;98693.75;5036715;27;98574;-84
2023/11/06 06:57:16;;;;;;;0.00;0.00;;;;;;;11.98;nan;98728.34;5044050;27;97337;-84
2023/11/06 06:59:42;;;;;;;0.10;0.10;;;;;;;12.03;nan;98723.63;5036191;27;97399;-83
2023/11/06 07:02:08;;;;;;;0.77;0.52;;;;;;;12.13;nan;98737.00;5025787;27;101345;-83
2023/11/06 07:04:33;;;;;;;0.00;0.00;;;;;;;12.03;nan;98701.75;5010929;27;101238;-85
2023/11/06 07:06:59;;;;;;;2.30;0.60;;;;;;;12.58;nan;98740.19;5019192;27;97118;-80
2023/11/06 07:09:31;;;;;;;0.10;0.10;;;;;;;12.87;nan;98731.16;5038560;27;97577;-88
2023/11/06 07:11:57;;;;;;;0.10;0.10;;;;;;;12.81;nan;98713.16;5038643;27;97231;-80
2023/11/06 07:14:24;;;;;;;0.00;0.00;;;;;;;12.83;nan;98737.59;5030973;27;100281;-81
2023/11/06 07:16:49;;;;;;;0.00;0.00;;;;;;;12.65;nan;98751.97;5033605;27;97866;-80
2023/11/06 07:19:15;;;;;;;1.35;0.73;;;;;;;12.73;nan;98757.56;5031948;27;97395;-81
2023/11/06 07:21:40;;;;;;;0.00;0.00;;;;;;;12.48;nan;98726.81;5031339;27;101029;-81
2023/11/06 07:24:06;;;;;;;0.10;0.10;;;;;;;12.67;nan;98758.00;5031973;27;97492;-84
2023/11/06 07:26:32;;;;;;;0.00;0.00;;;;;;;12.85;nan;98766.44;5028064;27;97229;-83
2023/11/06 07:28:57;;;;;;;0.00;0.00;;;;;;;12.98;nan;98769.94;5031801;27;97238;-85
2023/11/06 07:31:23;;;;;;;0.00;0.00;;;;;;;12.79;nan;98738.72;5026079;27;99925;-84
2023/11/06 07:33:49;;;;;;;0.00;0.00;;;;;;;12.94;nan;98778.13;5051936;27;97561;-84
2023/11/06 07:36:15;;;;;;;0.10;0.10;;;;;;;13.10;nan;98755.06;5025369;27;96864;-81
2023/11/06 07:38:40;;;;;;;0.10;0.10;;;;;;;13.38;nan;98768.97;5040001;27;97373;-81
2023/11/06 07:41:15;;;;;;;0.00;0.00;;;;;;;13.61;nan;98768.19;5030851;27;97656;-80
2023/11/06 07:43:40;;;;;;;0.10;0.10;;;;;;;13.80;nan;98776.50;5035186;27;98309;-81
2023/11/06 07:46:06;;;;;;;0.05;0.05;;;;;;;14.21;nan;98782.38;5029838;27;97684;-82
2023/11/06 07:48:31;;;;;;;0.00;0.00;;;;;;;14.35;nan;98744.41;5029308;27;97215;-83
2023/11/06 07:50:57;;;;;;;0.00;0.00;;;;;;;14.56;nan;98781.59;5025349;27;101589;-83
2023/11/06 07:53:23;;;;;;;0.10;0.10;;;;;;;14.35;nan;98782.19;5041793;27;98586;-81
2023/11/06 07:55:48;;;;;;;0.47;0.47;;;;;;;14.08;nan;98763.97;5030285;27;96684;-81
2023/11/06 07:58:14;;;;;;;0.00;0.00;;;;;;;13.96;nan;98754.28;5028826;27;97898;-81
2023/11/06 08:00:43;;;;;;;0.00;0.00;;;;;;;14.01;nan;98794.38;5028714;27;97626;-81
2023/11/06 08:03:09;;;;;;;0.10;0.10;;;;;;;13.95;nan;98792.16;5026578;27;97866;-77
2023/11/06 08:05:36;;;;;;;0.00;0.00;;;;;;;14.15;nan;98799.47;5032054;27;96915;-80
2023/11/06 08:08:03;;;;;;;0.00;0.00;;;;;;;13.93;nan;98754.50;5052600;27;97129;-79
2023/11/06 08:10:31;;;;;;;0.00;0.00;;;;;;;13.84;nan;98769.19;5037405;27;98204;-81
2023/11/06 08:12:58;;;;;;;0.10;0.10;;;;;;;14.13;nan;98798.75;5037117;27;98604;-82
2023/11/06 08:15:23;;;;;;;0.00;0.00;;;;;;;14.32;nan;98810.63;5065272;27;97275;-82
2023/11/06 08:17:49;;;;;;;0.30;0.30;;;;;;;14.18;nan;98809.81;5047926;27;97352;-82
2023/11/06 08:20:14;;;;;;;0.30;0.30;;;;;;;14.26;nan;98827.75;5054705;27;97470;-80
2023/11/06 08:22:40;;;;;;;0.65;0.55;;;;;;;14.10;nan;98801.59;5072903;27;97269;-81
2023/11/06 08:25:05;;;;;;;0.00;0.00;;;;;;;14.16;nan;98834.63;5055457;27;97272;-81
2023/11/06 08:27:32;;;;;;;0.00;0.00;;;;;;;13.97;nan;98809.56;5057529;27;97005;-80
2023/11/06 08:29:58;;;;;;;0.20;0.20;;;;;;;13.78;nan;98807.41;5039789;27;100238;-81
2023/11/06 08:32:24;;;;;;;0.10;0.10;;;;;;;14.07;nan;98838.75;5058158;27;97292;-80
2023/11/06 08:34:49;;;;;;;1.25;0.75;;;;;;;13.99;nan;98831.44;5072728;27;96754;-82
2023/11/06 08:37:15;;;;;;;0.00;0.00;;;;;;;14.28;nan;98860.13;5077997;27;98030;-81
2023/11/06 08:39:45;;;;;;;0.00;0.00;;;;;;;13.72;nan;98815.75;5069446;27;97948;-82
2023/11/06 08:42:14;;;;;;;0.00;0.00;;;;;;;14.06;nan;98863.47;5052425;27;97432;-82
2023/11/06 08:44:40;;;;;;;0.00;0.00;;;;;;;14.00;nan;98874.47;5035909;27;97092;-82
2023/11/06 08:47:07;;;;;;;0.00;0.00;;;;;;;13.85;nan;98838.63;5035534;27;96973;-81
2023/11/06 08:49:33;;;;;;;0.00;0.00;;;;;;;14.02;nan;98875.19;5035085;27;101499;-77
2023/11/06 08:51:59;;;;;;;0.10;0.10;;;;;;;14.20;nan;98878.34;5038202;27;97861;-82
2023/11/06 08:54:24;;;;;;;0.10;0.10;;;;;;;13.97;nan;98890.53;5025338;27;98127;-82
2023/11/06 08:56:50;;;;;;;0.10;0.10;;;;;;;13.83;nan;98904.66;5040861;27;97672;-80
2023/11/06 08:59:15;;;;;;;0.00;0.00;;;;;;;13.86;nan;98895.69;5053399;27;97443;-77
2023/11/06 09:01:47;;;;;;;0.00;0.00;;;;;;;13.96;nan;98908.16;5044813;27;97824;-82
2023/11/06 09:04:12;;;;;;;0.08;0.08;;;;;;;14.22;nan;98906.31;5054767;27;98022;-79
2023/11/06 09:06:40;;;;;;;0.00;0.00;;;;;;;14.15;nan;98912.13;5037793;27;97284;-83
2023/11/06 09:09:09;;;;;;;0.00;0.00;;;;;;;14.07;nan;98917.09;5026841;27;101879;-82
2023/11/06 09:11:36;;;;;;;0.00;0.00;;;;;;;13.92;nan;98917.22;5073980;27;97580;-83
2023/11/06 09:14:03;;;;;;;0.00;0.00;;;;;;;13.92;nan;98914.56;5059891;27;96793;-90
2023/11/06 09:16:31;;;;;;;0.05;0.05;;;;;;;14.00;nan;98916.69;5059605;27;96723;-91
2023/11/06 09:18:57;;;;;;;0.00;0.00;;;;;;;13.92;nan;98919.00;5048485;27;98197;-90
2023/11/06 09:21:24;;;;;;;1.48;1.40;;;;;;;13.77;nan;98926.19;5038081;27;98265;-80
2023/11/06 09:23:49;;;;;;;0.10;0.10;;;;;;;13.66;nan;98908.47;5044520;27;97193;-88
2023/11/06 09:26:15;;;;;;;0.00;0.00;;;;;;;13.78;nan;98931.34;5055749;27;97492;-89
2023/11/06 09:28:41;;;;;;;0.00;0.00;;;;;;;13.74;nan;98934.31;5075382;27;97082;-88
2023/11/06 09:31:07;;;;;;;0.13;0.13;;;;;;;13.67;nan;98941.81;5047738;27;97005;-84
2023/11/06 09:33:32;;;;;;;0.00;0.00;;;;;;;13.82;nan;98950.47;5062763;27;98019;-90
2023/11/06 09:35:58;;;;;;;0.10;0.10;;;;;;;13.48;nan;98928.19;5050843;27;97118;-82
2023/11/06 09:38:23;;;;;;;0.10;0.10;;;;;;;13.73;nan;98948.44;5038484;27;99766;-75
2023/11/06 09:40:49;;;;;;;0.00;0.00;;;;;;;13.46;nan;98914.25;5055283;27;98104;-75
2023/11/06 09:43:16;;;;;;;0.00;0.00;;;;;;;13.43;nan;98907.41;5079838;27;96811;-74
2023/11/06 09:45:41;;;;;;;0.45;0.45;;;;;;;13.74;nan;98955.41;5046165;27;98157;-74
2023/11/06 09:48:11;;;;;;;0.10;0.10;;;;;;;13.92;nan;98961.22;5071919;27;98099;-76
2023/11/06 09:50:39;;;;;;;0.00;0.00;;;;;;;14.09;nan;98957.41;5036233;27;97944;-76
2023/11/06 09:53:05;;;;;;;0.10;0.10;;;;;;;14.33;nan;98960.09;5034713;27;97206;-80
2023/11/06 09:55:31;;;;;;;0.00;0.00;;;;;;;14.23;nan;98923.81;5025860;27;97883;-82
2023/11/06 09:57:56;;;;;;;0.00;0.00;;;;;;;14.32;nan;98953.16;5046956;27;97785;-85
2023/11/06 10:00:22;;;;;;;1.35;0.98;;;;;;;14.56;nan;98953.22;5048101;27;97970;-82
2023/11/06 10:02:49;;;;;;;0.00;0.00;;;;;;;14.90;nan;98956.91;5049485;27;97783;-81
2023/11/06 10:05:16;;;;;;;0.08;0.08;;;;;;;14.78;nan;98926.94;5033920;27;96938;-78
2023/11/06 10:07:42;;;;;;;0.00;0.00;;;;;;;15.07;nan;98969.72;5074433;27;98007;-80
2023/11/06 10:10:16;;;;;;;0.13;0.13;;;;;;;15.22;nan;98958.97;5045294;27;101105;-81
2023/11/06 10:12:42;;;;;;;4.25;1.85;;;;;;;15.23;nan;98958.00;5052356;27;96814;-82
2023/11/06 10:15:11;;;;;;;0.10;0.10;;;;;;;15.27;nan;98964.72;5041842;27;98204;-83
2023/11/06 10:17:38;;;;;;;0.00;0.00;;;;;;;15.35;nan;98954.41;5038093;27;97699;-85
2023/11/06 10:20:16;;;;;;;0.00;0.00;;;;;;;15.20;nan;98956.41;5038824;27;101116;-81
2023/11/06 10:22:57;;;;;;;0.05;0.05;;;;;;;14.98;nan;98953.66;5056044;27;96756;-85
2023/11/06 10:25:29;;;;;;;0.10;0.10;;;;;;;15.16;nan;98925.91;5051014;27;98611;-81
2023/11/06 10:27:56;;;;;;;0.00;0.00;;;;;;;15.45;nan;98938.72;5044974;27;101371;-78
2023/11/06 10:30:23;;;;;;;0.00;0.00;;;;;;;15.43;nan;98959.97;5069799;27;97372;-79
2023/11/06 10:32:48;;;;;;;0.00;0.00;;;;;;;15.35;nan;98968.47;5055330;27;96845;-79
2023/11/06 10:35:18;;;;;;;0.00;0.00;;;;;;;15.51;nan;98933.81;5059259;27;98249;-79
2023/11/06 10:37:45;;;;;;;0.38;0.38;;;;;;;15.52;nan;98969.84;5053712;27;97926;-80
2023/11/06 10:40:13;;;;;;;0.00;0.00;;;;;;;15.33;nan;98973.06;5037169;27;100866;-77
2023/11/06 10:42:47;;;;;;;0.00;0.00;;;;;;;15.39;nan;98980.53;5059720;27;97373;-81
2023/11/06 10:45:15;;;;;;;0.10;0.10;;;;;;;15.80;nan;98971.28;5057211;27;96765;-78
2023/11/06 10:47:52;;;;;;;0.03;0.03;;;;;;;15.87;nan;98987.50;5051679;27;100835;-78
2023/11/06 10:50:20;;;;;;;0.08;0.08;;;;;;;15.62;nan;98962.91;5050713;27;98049;-80
2023/11/06 10:52:49;;;;;;;0.08;0.08;;;;;;;16.04;nan;98999.44;5057317;27;97489;-78
2023/11/06 10:55:16;;;;;;;0.00;0.00;;;;;;;15.58;nan;98960.63;5043646;27;97713;-79
2023/11/06 10:57:42;;;;;;;0.40;0.40;;;;;;;15.49;nan;98942.81;5051651;27;97409;-81
2023/11/06 11:00:11;;;;;;;0.00;0.00;;;;;;;15.72;nan;98994.00;5045775;27;97408;-80
2023/11/06 11:02:45;;;;;;;0.05;0.05;;;;;;;15.68;nan;99009.25;5044513;27;96772;-79
2023/11/06 11:05:12;;;;;;;0.00;0.00;;;;;;;15.61;nan;98995.59;5050580;27;97995;-81
2023/11/06 11:07:40;;;;;;;0.00;0.00;;;;;;;15.71;nan;99019.59;5057211;27;98588;-83
2023/11/06 11:10:12;;;;;;;0.00;0.00;;;;;;;15.69;nan;99010.09;5020118;27;100251;-80
2023/11/06 11:12:38;;;;;;;0.10;0.10;;;;;;;15.64;nan;99002.47;5057759;27;97256;-79
2023/11/06 11:15:05;;;;;;;0.10;0.10;;;;;;;15.73;nan;99014.19;5067245;27;97265;-79
2023/11/06 11:17:31;;;;;;;0.00;0.00;;;;;;;15.71;nan;99013.47;5019510;27;100855;-79
2023/11/06 11:20:02;;;;;;;0.10;0.10;;;;;;;15.51;nan;99023.72;5047362;27;97949;-79
2023/11/06 11:22:31;;;;;;;0.00;0.00;;;;;;;15.20;nan;98995.22;5045084;27;97301;-79
2023/11/06 11:24:59;;;;;;;0.00;0.00;;;;;;;15.28;nan;99029.88;5071065;27;97368;-82
2023/11/06 11:27:28;;;;;;;0.00;0.00;;;;;;;15.13;nan;99008.06;5031925;27;101142;-81
2023/11/06 11:29:54;;;;;;;0.10;0.10;;;;;;;15.41;nan;99038.56;5023645;27;100694;-77
2023/11/06 11:32:19;;;;;;;0.00;0.00;;;;;;;15.42;nan;99027.06;5065899;27;97234;-81
2023/11/06 11:34:45;;;;;;;0.00;0.00;;;;;;;15.33;nan;99035.63;5059674;27;97460;-79
2023/11/06 11:37:26;;;;;;;0.10;0.10;;;;;;;15.50;nan;99031.75;5072146;27;98427;-79
2023/11/06 11:39:52;;;;;;;0.10;0.10;;;;;;;15.41;nan;99012.13;5063484;27;97425;-80
2023/11/06 11:42:17;;;;;;;0.10;0.10;;;;;;;15.52;nan;99049.19;5059879;27;97230;-80
2023/11/06 11:44:57;;;;;;;0.00;0.00;;;;;;;15.60;nan;99014.25;5070253;27;96958;-78